sensor_id;sensor_type;location;lat;lon;timestamp;temperature;humidity
12849;DHT22;6493;50.928;7.172;2023-08-07T00:01:10;10.00;73.40
12849;DHT22;6493;50.928;7.172;2023-08-07T00:06:13;10.00;73.50
12849;DHT22;6493;50.928;7.172;2023-08-07T00:11:17;10.00;73.40
12849;DHT22;6493;50.928;7.172;2023-08-07T00:16:22;10.00;73.40
12849;DHT22;6493;50.928;7.172;2023-08-07T00:21:25;10.00;73.50
12849;DHT22;6493;50.928;7.172;2023-08-07T00:26:29;9.90;73.40
12849;DHT22;6493;50.928;7.172;2023-08-07T00:31:36;9.90;73.40
12849;DHT22;6493;50.928;7.172;2023-08-07T00:36:39;9.90;73.50
12849;DHT22;6493;50.928;7.172;2023-08-07T00:41:43;9.90;73.40
12849;DHT22;6493;50.928;7.172;2023-08-07T00:46:48;9.80;73.40
12849;DHT22;6493;50.928;7.172;2023-08-07T00:51:52;9.80;73.60
12849;DHT22;6493;50.928;7.172;2023-08-07T00:56:57;9.80;73.60
12849;DHT22;6493;50.928;7.172;2023-08-07T01:02:06;9.80;73.70
12849;DHT22;6493;50.928;7.172;2023-08-07T01:07:09;9.80;73.70
12849;DHT22;6493;50.928;7.172;2023-08-07T01:12:16;9.80;73.80
12849;DHT22;6493;50.928;7.172;2023-08-07T01:17:23;9.70;73.70
12849;DHT22;6493;50.928;7.172;2023-08-07T01:22:29;9.70;73.80
12849;DHT22;6493;50.928;7.172;2023-08-07T01:27:35;9.70;73.80
12849;DHT22;6493;50.928;7.172;2023-08-07T01:32:47;9.60;73.80
12849;DHT22;6493;50.928;7.172;2023-08-07T01:37:55;9.60;73.80
12849;DHT22;6493;50.928;7.172;2023-08-07T01:43:00;9.60;73.80
12849;DHT22;6493;50.928;7.172;2023-08-07T01:48:04;9.60;74.50
12849;DHT22;6493;50.928;7.172;2023-08-07T01:53:09;9.60;73.80
12849;DHT22;6493;50.928;7.172;2023-08-07T01:58:13;9.60;73.90
12849;DHT22;6493;50.928;7.172;2023-08-07T02:03:17;9.60;74.50
12849;DHT22;6493;50.928;7.172;2023-08-07T02:08:22;9.60;73.80
12849;DHT22;6493;50.928;7.172;2023-08-07T02:13:26;9.60;73.80
12849;DHT22;6493;50.928;7.172;2023-08-07T02:18:29;9.60;73.80
12849;DHT22;6493;50.928;7.172;2023-08-07T02:23:34;9.50;73.70
12849;DHT22;6493;50.928;7.172;2023-08-07T02:28:38;9.50;73.70
12849;DHT22;6493;50.928;7.172;2023-08-07T02:33:42;9.50;73.70
12849;DHT22;6493;50.928;7.172;2023-08-07T02:38:47;9.50;73.80
12849;DHT22;6493;50.928;7.172;2023-08-07T02:43:51;9.50;73.70
12849;DHT22;6493;50.928;7.172;2023-08-07T02:48:54;9.50;73.70
12849;DHT22;6493;50.928;7.172;2023-08-07T02:53:59;9.50;73.80
12849;DHT22;6493;50.928;7.172;2023-08-07T02:59:03;9.50;74.00
12849;DHT22;6493;50.928;7.172;2023-08-07T03:04:07;9.50;74.00
12849;DHT22;6493;50.928;7.172;2023-08-07T03:09:12;9.50;74.00
12849;DHT22;6493;50.928;7.172;2023-08-07T03:14:16;9.40;74.00
12849;DHT22;6493;50.928;7.172;2023-08-07T03:19:20;9.40;74.00
12849;DHT22;6493;50.928;7.172;2023-08-07T03:24:26;9.40;74.00
12849;DHT22;6493;50.928;7.172;2023-08-07T03:29:29;9.40;74.20
12849;DHT22;6493;50.928;7.172;2023-08-07T03:34:33;9.40;74.20
12849;DHT22;6493;50.928;7.172;2023-08-07T03:39:39;9.40;74.20
12849;DHT22;6493;50.928;7.172;2023-08-07T03:44:43;9.40;74.20
12849;DHT22;6493;50.928;7.172;2023-08-07T03:49:47;9.30;74.10
12849;DHT22;6493;50.928;7.172;2023-08-07T03:54:52;9.40;74.20
12849;DHT22;6493;50.928;7.172;2023-08-07T03:59:56;9.40;74.30
12849;DHT22;6493;50.928;7.172;2023-08-07T04:05:04;9.40;74.30
12849;DHT22;6493;50.928;7.172;2023-08-07T04:10:09;9.40;74.30
12849;DHT22;6493;50.928;7.172;2023-08-07T04:15:14;9.30;74.20
12849;DHT22;6493;50.928;7.172;2023-08-07T04:20:17;9.40;74.30
12849;DHT22;6493;50.928;7.172;2023-08-07T04:25:23;9.40;74.30
12849;DHT22;6493;50.928;7.172;2023-08-07T04:30:27;9.30;74.10
12849;DHT22;6493;50.928;7.172;2023-08-07T04:35:31;9.30;74.20
12849;DHT22;6493;50.928;7.172;2023-08-07T04:40:36;9.30;74.30
12849;DHT22;6493;50.928;7.172;2023-08-07T04:45:40;9.30;74.30
12849;DHT22;6493;50.928;7.172;2023-08-07T04:50:44;9.30;74.30
12849;DHT22;6493;50.928;7.172;2023-08-07T04:55:49;9.30;74.40
12849;DHT22;6493;50.928;7.172;2023-08-07T05:00:55;9.30;74.40
12849;DHT22;6493;50.928;7.172;2023-08-07T05:05:59;9.30;74.50
12849;DHT22;6493;50.928;7.172;2023-08-07T05:11:05;9.30;74.50
12849;DHT22;6493;50.928;7.172;2023-08-07T05:16:08;9.30;75.40
12849;DHT22;6493;50.928;7.172;2023-08-07T05:21:12;9.30;74.60
12849;DHT22;6493;50.928;7.172;2023-08-07T05:26:18;9.30;74.60
12849;DHT22;6493;50.928;7.172;2023-08-07T05:31:21;9.30;74.70
12849;DHT22;6493;50.928;7.172;2023-08-07T05:36:25;9.40;74.70
12849;DHT22;6493;50.928;7.172;2023-08-07T05:41:30;9.40;74.70
12849;DHT22;6493;50.928;7.172;2023-08-07T05:46:34;9.40;74.70
12849;DHT22;6493;50.928;7.172;2023-08-07T05:51:37;9.40;74.70
12849;DHT22;6493;50.928;7.172;2023-08-07T05:56:42;9.40;74.80
12849;DHT22;6493;50.928;7.172;2023-08-07T06:01:46;9.40;74.70
12849;DHT22;6493;50.928;7.172;2023-08-07T06:06:50;9.40;74.70
12849;DHT22;6493;50.928;7.172;2023-08-07T06:11:55;9.40;74.70
12849;DHT22;6493;50.928;7.172;2023-08-07T06:16:59;9.40;74.70
12849;DHT22;6493;50.928;7.172;2023-08-07T06:22:04;9.40;74.60
12849;DHT22;6493;50.928;7.172;2023-08-07T06:27:09;9.40;74.70
12849;DHT22;6493;50.928;7.172;2023-08-07T06:32:13;9.40;74.70
12849;DHT22;6493;50.928;7.172;2023-08-07T06:37:17;9.40;74.60
12849;DHT22;6493;50.928;7.172;2023-08-07T06:42:22;9.40;74.50
12849;DHT22;6493;50.928;7.172;2023-08-07T06:47:26;9.40;74.50
12849;DHT22;6493;50.928;7.172;2023-08-07T06:52:29;9.30;74.40
12849;DHT22;6493;50.928;7.172;2023-08-07T06:57:35;9.30;74.50
12849;DHT22;6493;50.928;7.172;2023-08-07T07:02:38;9.30;75.30
12849;DHT22;6493;50.928;7.172;2023-08-07T07:07:42;9.20;74.50
12849;DHT22;6493;50.928;7.172;2023-08-07T07:12:47;9.30;74.60
12849;DHT22;6493;50.928;7.172;2023-08-07T07:17:51;9.20;74.60
12849;DHT22;6493;50.928;7.172;2023-08-07T07:22:55;9.20;74.50
12849;DHT22;6493;50.928;7.172;2023-08-07T07:28:00;9.20;74.60
12849;DHT22;6493;50.928;7.172;2023-08-07T07:33:03;9.20;74.80
12849;DHT22;6493;50.928;7.172;2023-08-07T07:38:07;9.20;74.80
12849;DHT22;6493;50.928;7.172;2023-08-07T07:43:13;9.20;74.90
12849;DHT22;6493;50.928;7.172;2023-08-07T07:48:17;9.20;75.00
12849;DHT22;6493;50.928;7.172;2023-08-07T07:53:21;9.20;75.00
12849;DHT22;6493;50.928;7.172;2023-08-07T07:58:28;9.20;75.10
12849;DHT22;6493;50.928;7.172;2023-08-07T08:03:32;9.20;75.20
12849;DHT22;6493;50.928;7.172;2023-08-07T08:08:36;9.20;75.30
12849;DHT22;6493;50.928;7.172;2023-08-07T08:13:41;9.30;75.50
12849;DHT22;6493;50.928;7.172;2023-08-07T08:18:44;9.30;75.50
12849;DHT22;6493;50.928;7.172;2023-08-07T08:23:48;9.30;75.40
12849;DHT22;6493;50.928;7.172;2023-08-07T08:28:53;9.30;75.40
12849;DHT22;6493;50.928;7.172;2023-08-07T08:33:56;9.40;75.40
12849;DHT22;6493;50.928;7.172;2023-08-07T08:39:01;9.40;75.50
12849;DHT22;6493;50.928;7.172;2023-08-07T08:44:10;9.40;75.60
12849;DHT22;6493;50.928;7.172;2023-08-07T08:49:16;9.40;75.80
12849;DHT22;6493;50.928;7.172;2023-08-07T08:54:24;9.50;75.90
12849;DHT22;6493;50.928;7.172;2023-08-07T08:59:30;9.50;75.90
12849;DHT22;6493;50.928;7.172;2023-08-07T09:04:34;9.50;75.90
12849;DHT22;6493;50.928;7.172;2023-08-07T09:09:38;9.60;76.60
12849;DHT22;6493;50.928;7.172;2023-08-07T09:14:45;9.60;75.90
12849;DHT22;6493;50.928;7.172;2023-08-07T09:19:53;9.70;76.20
12849;DHT22;6493;50.928;7.172;2023-08-07T09:24:56;9.70;76.20
12849;DHT22;6493;50.928;7.172;2023-08-07T09:30:06;9.80;76.20
12849;DHT22;6493;50.928;7.172;2023-08-07T09:35:12;9.80;76.20
12849;DHT22;6493;50.928;7.172;2023-08-07T09:40:16;9.90;77.00
12849;DHT22;6493;50.928;7.172;2023-08-07T09:45:23;9.90;76.30
12849;DHT22;6493;50.928;7.172;2023-08-07T09:50:27;10.00;76.30
12849;DHT22;6493;50.928;7.172;2023-08-07T09:55:32;10.00;76.20
12849;DHT22;6493;50.928;7.172;2023-08-07T10:00:37;10.00;76.20
12849;DHT22;6493;50.928;7.172;2023-08-07T10:05:41;10.10;76.40
12849;DHT22;6493;50.928;7.172;2023-08-07T10:10:46;10.10;77.20
12849;DHT22;6493;50.928;7.172;2023-08-07T10:15:51;10.30;77.70
12849;DHT22;6493;50.928;7.172;2023-08-07T10:20:57;10.40;77.20
12849;DHT22;6493;50.928;7.172;2023-08-07T10:26:04;10.50;77.30
12849;DHT22;6493;50.928;7.172;2023-08-07T10:31:11;10.60;77.90
12849;DHT22;6493;50.928;7.172;2023-08-07T10:36:16;10.80;78.30
12849;DHT22;6493;50.928;7.172;2023-08-07T10:41:20;11.00;78.40
12849;DHT22;6493;50.928;7.172;2023-08-07T10:46:25;11.20;78.60
12849;DHT22;6493;50.928;7.172;2023-08-07T10:51:30;11.40;79.30
12849;DHT22;6493;50.928;7.172;2023-08-07T10:56:35;11.70;79.60
12849;DHT22;6493;50.928;7.172;2023-08-07T11:01:42;12.00;80.00
12849;DHT22;6493;50.928;7.172;2023-08-07T11:06:47;12.30;79.90
12849;DHT22;6493;50.928;7.172;2023-08-07T11:11:52;12.60;80.30
12849;DHT22;6493;50.928;7.172;2023-08-07T11:16:57;13.00;80.60
12849;DHT22;6493;50.928;7.172;2023-08-07T11:22:01;13.30;80.40
12849;DHT22;6493;50.928;7.172;2023-08-07T11:27:05;13.50;79.80
12849;DHT22;6493;50.928;7.172;2023-08-07T11:32:12;13.70;77.70
12849;DHT22;6493;50.928;7.172;2023-08-07T11:37:17;13.80;78.10
12849;DHT22;6493;50.928;7.172;2023-08-07T11:42:22;13.80;76.30
12849;DHT22;6493;50.928;7.172;2023-08-07T11:47:27;13.80;75.90
12849;DHT22;6493;50.928;7.172;2023-08-07T11:52:31;13.80;75.60
12849;DHT22;6493;50.928;7.172;2023-08-07T11:57:38;13.80;75.50
12849;DHT22;6493;50.928;7.172;2023-08-07T12:02:43;13.80;75.40
12849;DHT22;6493;50.928;7.172;2023-08-07T12:07:47;13.90;75.70
12849;DHT22;6493;50.928;7.172;2023-08-07T12:12:58;14.10;75.70
12849;DHT22;6493;50.928;7.172;2023-08-07T12:18:04;14.20;74.00
12849;DHT22;6493;50.928;7.172;2023-08-07T12:23:13;14.50;75.30
12849;DHT22;6493;50.928;7.172;2023-08-07T12:28:18;14.60;74.30
12849;DHT22;6493;50.928;7.172;2023-08-07T12:33:24;14.90;74.30
12849;DHT22;6493;50.928;7.172;2023-08-07T12:38:28;15.10;73.20
12849;DHT22;6493;50.928;7.172;2023-08-07T12:43:32;15.30;74.10
12849;DHT22;6493;50.928;7.172;2023-08-07T12:48:37;15.40;73.70
12849;DHT22;6493;50.928;7.172;2023-08-07T12:53:41;15.60;73.40
12849;DHT22;6493;50.928;7.172;2023-08-07T12:58:45;15.70;73.00
12849;DHT22;6493;50.928;7.172;2023-08-07T13:03:50;15.90;72.00
12849;DHT22;6493;50.928;7.172;2023-08-07T13:08:54;15.90;70.90
12849;DHT22;6493;50.928;7.172;2023-08-07T13:13:58;15.90;70.90
12849;DHT22;6493;50.928;7.172;2023-08-07T13:19:03;16.00;70.90
12849;DHT22;6493;50.928;7.172;2023-08-07T13:24:07;16.00;70.50
12849;DHT22;6493;50.928;7.172;2023-08-07T13:29:11;16.00;70.20
12849;DHT22;6493;50.928;7.172;2023-08-07T13:34:16;16.00;70.20
12849;DHT22;6493;50.928;7.172;2023-08-07T13:39:19;16.10;70.10
12849;DHT22;6493;50.928;7.172;2023-08-07T13:44:23;16.10;71.00
12849;DHT22;6493;50.928;7.172;2023-08-07T13:49:28;16.30;70.00
12849;DHT22;6493;50.928;7.172;2023-08-07T13:54:32;16.40;69.60
12849;DHT22;6493;50.928;7.172;2023-08-07T13:59:35;16.40;69.10
12849;DHT22;6493;50.928;7.172;2023-08-07T14:04:40;16.40;68.20
12849;DHT22;6493;50.928;7.172;2023-08-07T14:09:47;16.40;67.40
12849;DHT22;6493;50.928;7.172;2023-08-07T14:14:51;16.30;67.20
12849;DHT22;6493;50.928;7.172;2023-08-07T14:19:56;16.30;67.40
12849;DHT22;6493;50.928;7.172;2023-08-07T14:24:59;16.30;67.70
12849;DHT22;6493;50.928;7.172;2023-08-07T14:30:04;16.40;68.30
12849;DHT22;6493;50.928;7.172;2023-08-07T14:35:09;16.50;68.70
12849;DHT22;6493;50.928;7.172;2023-08-07T14:40:12;16.70;67.50
12849;DHT22;6493;50.928;7.172;2023-08-07T14:45:16;16.70;67.10
12849;DHT22;6493;50.928;7.172;2023-08-07T14:50:24;16.60;66.30
12849;DHT22;6493;50.928;7.172;2023-08-07T14:55:27;16.40;65.60
12849;DHT22;6493;50.928;7.172;2023-08-07T15:00:31;16.20;65.60
12849;DHT22;6493;50.928;7.172;2023-08-07T15:05:36;16.00;65.90
12849;DHT22;6493;50.928;7.172;2023-08-07T15:10:40;15.80;66.00
12849;DHT22;6493;50.928;7.172;2023-08-07T15:15:44;15.70;66.70
12849;DHT22;6493;50.928;7.172;2023-08-07T15:20:49;15.70;67.30
12849;DHT22;6493;50.928;7.172;2023-08-07T15:25:53;15.70;66.90
12849;DHT22;6493;50.928;7.172;2023-08-07T15:30:58;15.70;66.60
12849;DHT22;6493;50.928;7.172;2023-08-07T15:36:03;15.70;66.10
12849;DHT22;6493;50.928;7.172;2023-08-07T15:41:08;15.60;66.10
12849;DHT22;6493;50.928;7.172;2023-08-07T15:46:11;15.60;66.40
12849;DHT22;6493;50.928;7.172;2023-08-07T15:51:16;15.60;66.40
12849;DHT22;6493;50.928;7.172;2023-08-07T15:56:22;15.50;66.00
12849;DHT22;6493;50.928;7.172;2023-08-07T16:01:25;15.50;66.20
12849;DHT22;6493;50.928;7.172;2023-08-07T16:06:30;15.50;66.40
12849;DHT22;6493;50.928;7.172;2023-08-07T16:11:34;15.50;66.20
12849;DHT22;6493;50.928;7.172;2023-08-07T16:16:38;15.50;66.40
12849;DHT22;6493;50.928;7.172;2023-08-07T16:21:43;15.60;66.40
12849;DHT22;6493;50.928;7.172;2023-08-07T16:26:46;15.60;66.20
12849;DHT22;6493;50.928;7.172;2023-08-07T16:31:50;15.70;66.30
12849;DHT22;6493;50.928;7.172;2023-08-07T16:36:56;15.70;66.10
12849;DHT22;6493;50.928;7.172;2023-08-07T16:42:00;15.70;65.70
12849;DHT22;6493;50.928;7.172;2023-08-07T16:47:04;15.70;65.70
12849;DHT22;6493;50.928;7.172;2023-08-07T16:52:10;15.60;65.50
12849;DHT22;6493;50.928;7.172;2023-08-07T16:57:14;15.60;65.30
12849;DHT22;6493;50.928;7.172;2023-08-07T17:02:17;15.60;65.40
12849;DHT22;6493;50.928;7.172;2023-08-07T17:07:22;15.50;65.10
12849;DHT22;6493;50.928;7.172;2023-08-07T17:12:26;15.40;64.80
12849;DHT22;6493;50.928;7.172;2023-08-07T17:17:30;15.40;65.00
12849;DHT22;6493;50.928;7.172;2023-08-07T17:22:35;15.30;64.90
12849;DHT22;6493;50.928;7.172;2023-08-07T17:27:38;15.20;64.70
12849;DHT22;6493;50.928;7.172;2023-08-07T17:32:42;15.10;64.80
12849;DHT22;6493;50.928;7.172;2023-08-07T17:37:47;15.00;64.70
12849;DHT22;6493;50.928;7.172;2023-08-07T17:42:51;15.00;64.70
12849;DHT22;6493;50.928;7.172;2023-08-07T17:47:55;14.90;64.60
12849;DHT22;6493;50.928;7.172;2023-08-07T17:53:00;14.80;64.60
12849;DHT22;6493;50.928;7.172;2023-08-07T17:58:04;14.80;64.60
12849;DHT22;6493;50.928;7.172;2023-08-07T18:03:07;14.70;64.60
12849;DHT22;6493;50.928;7.172;2023-08-07T18:08:15;14.60;64.60
12849;DHT22;6493;50.928;7.172;2023-08-07T18:13:18;14.60;64.50
12849;DHT22;6493;50.928;7.172;2023-08-07T18:18:22;14.60;64.40
12849;DHT22;6493;50.928;7.172;2023-08-07T18:23:27;14.50;64.20
12849;DHT22;6493;50.928;7.172;2023-08-07T18:28:33;14.40;64.70
12849;DHT22;6493;50.928;7.172;2023-08-07T18:33:37;14.40;64.10
12849;DHT22;6493;50.928;7.172;2023-08-07T18:38:42;14.30;64.10
12849;DHT22;6493;50.928;7.172;2023-08-07T18:43:46;14.30;64.00
12849;DHT22;6493;50.928;7.172;2023-08-07T18:48:50;14.20;63.70
12849;DHT22;6493;50.928;7.172;2023-08-07T18:53:55;14.20;63.90
12849;DHT22;6493;50.928;7.172;2023-08-07T18:58:58;14.10;63.40
12849;DHT22;6493;50.928;7.172;2023-08-07T19:04:05;14.00;63.50
12849;DHT22;6493;50.928;7.172;2023-08-07T19:09:10;13.90;63.40
12849;DHT22;6493;50.928;7.172;2023-08-07T19:14:14;13.80;63.20
12849;DHT22;6493;50.928;7.172;2023-08-07T19:19:18;13.80;63.30
12849;DHT22;6493;50.928;7.172;2023-08-07T19:24:23;13.70;63.30
12849;DHT22;6493;50.928;7.172;2023-08-07T19:29:26;13.50;63.10
12849;DHT22;6493;50.928;7.172;2023-08-07T19:34:30;13.40;63.20
12849;DHT22;6493;50.928;7.172;2023-08-07T19:39:36;13.30;63.20
12849;DHT22;6493;50.928;7.172;2023-08-07T19:44:39;13.20;63.20
12849;DHT22;6493;50.928;7.172;2023-08-07T19:49:45;13.10;63.30
12849;DHT22;6493;50.928;7.172;2023-08-07T19:54:50;13.00;63.40
12849;DHT22;6493;50.928;7.172;2023-08-07T19:59:54;12.90;63.20
12849;DHT22;6493;50.928;7.172;2023-08-07T20:04:58;12.80;63.20
12849;DHT22;6493;50.928;7.172;2023-08-07T20:10:03;12.70;63.20
12849;DHT22;6493;50.928;7.172;2023-08-07T20:15:11;12.60;63.30
12849;DHT22;6493;50.928;7.172;2023-08-07T20:20:16;12.50;63.30
12849;DHT22;6493;50.928;7.172;2023-08-07T20:25:23;12.50;63.50
12849;DHT22;6493;50.928;7.172;2023-08-07T20:30:28;12.40;63.40
12849;DHT22;6493;50.928;7.172;2023-08-07T20:35:31;12.30;63.40
12849;DHT22;6493;50.928;7.172;2023-08-07T20:40:36;12.30;64.30
12849;DHT22;6493;50.928;7.172;2023-08-07T20:45:40;12.20;63.50
12849;DHT22;6493;50.928;7.172;2023-08-07T20:50:44;12.20;63.60
12849;DHT22;6493;50.928;7.172;2023-08-07T20:55:49;12.20;63.80
12849;DHT22;6493;50.928;7.172;2023-08-07T21:00:53;12.10;63.80
12849;DHT22;6493;50.928;7.172;2023-08-07T21:05:59;12.10;63.90
12849;DHT22;6493;50.928;7.172;2023-08-07T21:11:04;12.20;64.00
12849;DHT22;6493;50.928;7.172;2023-08-07T21:16:07;12.20;64.00
12849;DHT22;6493;50.928;7.172;2023-08-07T21:21:11;12.20;64.00
12849;DHT22;6493;50.928;7.172;2023-08-07T21:26:16;12.20;64.00
12849;DHT22;6493;50.928;7.172;2023-08-07T21:31:20;12.20;64.00
12849;DHT22;6493;50.928;7.172;2023-08-07T21:36:24;12.20;64.10
12849;DHT22;6493;50.928;7.172;2023-08-07T21:41:30;12.20;64.10
12849;DHT22;6493;50.928;7.172;2023-08-07T21:46:33;12.20;64.10
12849;DHT22;6493;50.928;7.172;2023-08-07T21:51:37;12.10;64.10
12849;DHT22;6493;50.928;7.172;2023-08-07T21:56:42;12.10;64.10
12849;DHT22;6493;50.928;7.172;2023-08-07T22:01:46;12.10;64.10
12849;DHT22;6493;50.928;7.172;2023-08-07T22:06:50;12.10;64.20
12849;DHT22;6493;50.928;7.172;2023-08-07T22:11:55;12.00;64.10
12849;DHT22;6493;50.928;7.172;2023-08-07T22:16:59;12.00;64.20
12849;DHT22;6493;50.928;7.172;2023-08-07T22:22:03;12.00;64.20
12849;DHT22;6493;50.928;7.172;2023-08-07T22:27:08;12.00;64.30
12849;DHT22;6493;50.928;7.172;2023-08-07T22:32:12;11.90;64.20
12849;DHT22;6493;50.928;7.172;2023-08-07T22:37:15;11.90;64.30
12849;DHT22;6493;50.928;7.172;2023-08-07T22:42:21;11.90;64.40
12849;DHT22;6493;50.928;7.172;2023-08-07T22:47:25;11.90;64.40
12849;DHT22;6493;50.928;7.172;2023-08-07T22:52:28;11.80;64.30
12849;DHT22;6493;50.928;7.172;2023-08-07T22:57:33;11.80;64.50
12849;DHT22;6493;50.928;7.172;2023-08-07T23:02:37;11.80;64.60
12849;DHT22;6493;50.928;7.172;2023-08-07T23:07:41;11.70;64.60
12849;DHT22;6493;50.928;7.172;2023-08-07T23:12:48;11.80;64.70
12849;DHT22;6493;50.928;7.172;2023-08-07T23:17:54;11.80;64.70
12849;DHT22;6493;50.928;7.172;2023-08-07T23:22:58;11.70;64.60
12849;DHT22;6493;50.928;7.172;2023-08-07T23:28:03;11.70;64.70
12849;DHT22;6493;50.928;7.172;2023-08-07T23:33:07;11.70;64.60
12849;DHT22;6493;50.928;7.172;2023-08-07T23:38:10;11.60;64.50
12849;DHT22;6493;50.928;7.172;2023-08-07T23:43:15;11.60;64.60
12849;DHT22;6493;50.928;7.172;2023-08-07T23:48:20;11.60;64.70
12849;DHT22;6493;50.928;7.172;2023-08-07T23:53:23;11.50;64.60
12849;DHT22;6493;50.928;7.172;2023-08-07T23:58:28;11.40;64.50
